createdAt,value
2022-12-04T00:01:27.762Z,102244.44
2022-12-04T00:03:56.720Z,102248.78
2022-12-04T00:06:23.952Z,102246.16
2022-12-04T00:08:51.793Z,102243.56
2022-12-04T00:11:22.081Z,102241.84
2022-12-04T00:13:48.671Z,102239.22
2022-12-04T00:16:18.894Z,102248.78
2022-12-04T00:18:45.529Z,102246.19
2022-12-04T00:21:13.929Z,102253.13
2022-12-04T00:23:40.782Z,102252.25
2022-12-04T00:26:10.587Z,102245.28
2022-12-04T00:28:37.840Z,102240.94
2022-12-04T00:31:12.953Z,102244.41
2022-12-04T00:33:39.841Z,102241.81
2022-12-04T00:36:09.782Z,102240.09
2022-12-04T00:38:37.380Z,102245.28
2022-12-04T00:41:05.115Z,102238.34
2022-12-04T00:43:31.864Z,102242.69
2022-12-04T00:45:58.559Z,102246.16
2022-12-04T00:48:25.157Z,102245.31
2022-12-04T00:50:51.756Z,102245.28
2022-12-04T00:53:18.395Z,102238.34
2022-12-04T00:55:44.911Z,102240.97
2022-12-04T00:58:12.318Z,102239.22
2022-12-04T01:00:41.618Z,102234.84
2022-12-04T01:03:09.407Z,102233.13
2022-12-04T01:05:40.875Z,102232.25
2022-12-04T01:08:08.164Z,102224.44
2022-12-04T01:10:35.214Z,102223.56
2022-12-04T01:13:01.727Z,102228.78
2022-12-04T01:15:28.206Z,102224.44
2022-12-04T01:17:54.863Z,102220.09
2022-12-04T01:20:21.374Z,102219.25
2022-12-04T01:22:47.879Z,102218.34
2022-12-04T01:25:14.338Z,102220.97
2022-12-04T01:27:40.833Z,102220.97
2022-12-04T01:30:08.048Z,102221.84
2022-12-04T01:32:34.508Z,102230.53
2022-12-04T01:35:00.984Z,102215.75
2022-12-04T01:37:30.665Z,102225.31
2022-12-04T01:39:57.661Z,102220.97
2022-12-04T01:42:24.909Z,102223.56
2022-12-04T01:45:29.259Z,102209.63
2022-12-04T01:48:00.307Z,102205.28
2022-12-04T01:50:26.889Z,102213.13
2022-12-04T01:52:53.532Z,102214.88
2022-12-04T01:55:20.052Z,102213.13
2022-12-04T01:57:46.666Z,102215.75
2022-12-04T02:00:15.959Z,102214.91
2022-12-04T02:02:47.394Z,102207.94
2022-12-04T02:05:19.347Z,102206.19
2022-12-04T02:07:48.638Z,102206.19
2022-12-04T02:10:17.176Z,102211.41
2022-12-04T02:12:51.175Z,102205.34
2022-12-04T02:15:26.823Z,102215.75
2022-12-04T02:18:22.466Z,102207.94
2022-12-04T02:20:57.856Z,102219.22
2022-12-04T02:23:52.357Z,102221.81
2022-12-04T02:26:40.729Z,102217.47
2022-12-04T02:29:34.283Z,102211.41
2022-12-04T02:32:19.946Z,102218.34
2022-12-04T02:35:08.885Z,102213.13
2022-12-04T02:37:49.592Z,102206.19
2022-12-04T02:40:22.879Z,102204.44
2022-12-04T02:43:03.496Z,102202.69
2022-12-04T02:45:35.250Z,102208.78
2022-12-04T02:48:06.250Z,102202.66
2022-12-04T02:50:36.104Z,102213.09
2022-12-04T02:53:10.201Z,102203.56
2022-12-04T02:56:17.147Z,102210.50
2022-12-04T02:58:52.796Z,102202.69
2022-12-04T03:01:24.039Z,102196.59
2022-12-04T03:04:14.084Z,102193.97
2022-12-04T03:06:44.442Z,102199.19
2022-12-04T03:09:32.754Z,102203.53
2022-12-04T03:12:20.523Z,102193.97
2022-12-04T03:15:08.003Z,102187.03
2022-12-04T03:17:46.135Z,102191.34
2022-12-04T03:20:15.307Z,102184.41
2022-12-04T03:22:46.020Z,102185.31
2022-12-04T03:25:13.918Z,102186.19
2022-12-04T03:27:54.651Z,102183.56
2022-12-04T03:30:23.927Z,102181.81
2022-12-04T03:33:07.131Z,102180.94
2022-12-04T03:35:39.308Z,102175.72
2022-12-04T03:38:37.760Z,102181.84
2022-12-04T03:41:30.541Z,102180.06
2022-12-04T03:44:08.836Z,102166.16
2022-12-04T03:47:01.864Z,102168.75
2022-12-04T03:49:42.059Z,102172.22
2022-12-04T03:52:18.844Z,102161.81
2022-12-04T03:55:18.300Z,102160.06
2022-12-04T03:57:46.752Z,102164.44
2022-12-04T04:00:15.641Z,102162.66
2022-12-04T04:02:48.765Z,102163.56
2022-12-04T04:05:16.571Z,102163.56
2022-12-04T04:07:51.545Z,102167.03
2022-12-04T04:10:21.851Z,102162.66
2022-12-04T04:13:19.260Z,102166.16
2022-12-04T04:16:10.943Z,102164.41
2022-12-04T04:19:00.494Z,102168.78
2022-12-04T04:21:50.884Z,102173.13
2022-12-04T04:24:43.369Z,102173.09
2022-12-04T04:27:10.009Z,102169.63
2022-12-04T04:29:38.043Z,102174.88
2022-12-04T04:32:16.762Z,102176.59
2022-12-04T04:35:04.997Z,102169.63
2022-12-04T04:37:42.915Z,102173.13
2022-12-04T04:40:15.449Z,102177.47
2022-12-04T04:42:48.002Z,102180.94
2022-12-04T04:45:47.974Z,102174.88
2022-12-04T04:48:19.427Z,102168.78
2022-12-04T04:50:46.369Z,102169.63
2022-12-04T04:53:18.784Z,102175.72
2022-12-04T04:55:45.855Z,102169.66
2022-12-04T04:58:16.148Z,102169.66
2022-12-04T05:01:05.545Z,102169.63
2022-12-04T05:03:32.639Z,102182.69
2022-12-04T05:05:59.330Z,102175.75
2022-12-04T05:08:25.865Z,102168.78
2022-12-04T05:10:52.538Z,102173.13
2022-12-04T05:13:19.848Z,102178.34
2022-12-04T05:16:03.550Z,102182.69
2022-12-04T05:18:31.387Z,102172.25
2022-12-04T05:21:05.444Z,102179.22
2022-12-04T05:23:31.892Z,102179.19
2022-12-04T05:26:02.767Z,102181.84
2022-12-04T05:28:29.510Z,102181.81
2022-12-04T05:30:57.717Z,102183.56
2022-12-04T05:33:24.477Z,102187.94
2022-12-04T05:36:02.316Z,102199.25
2022-12-04T05:38:28.897Z,102193.16
2022-12-04T05:40:58.158Z,102188.78
2022-12-04T05:43:24.721Z,102200.09
2022-12-04T05:45:51.180Z,102197.47
2022-12-04T05:48:17.841Z,102186.16
2022-12-04T05:50:44.489Z,102196.59
2022-12-04T05:53:10.971Z,102202.66
2022-12-04T05:55:37.560Z,102200.97
2022-12-04T05:58:04.640Z,102194.88
2022-12-04T06:00:31.343Z,102200.97
2022-12-04T06:02:58.263Z,102187.94
2022-12-04T06:05:24.721Z,102197.47
2022-12-04T06:07:51.386Z,102200.94
2022-12-04T06:10:17.889Z,102196.59
2022-12-04T06:12:44.360Z,102195.72
2022-12-04T06:15:11.161Z,102197.47
2022-12-04T06:17:37.629Z,102198.31
2022-12-04T06:20:10.916Z,102200.94
2022-12-04T06:22:38.102Z,102194.88
2022-12-04T06:25:04.929Z,102196.63
2022-12-04T06:27:31.651Z,102200.13
2022-12-04T06:29:58.541Z,102208.81
2022-12-04T06:32:25.499Z,102207.06
2022-12-04T06:34:53.612Z,102207.91
2022-12-04T06:37:21.775Z,102202.72
2022-12-04T06:39:48.815Z,102198.31
2022-12-04T06:42:15.372Z,102201.81
2022-12-04T06:44:41.849Z,102207.06
2022-12-04T06:47:08.667Z,102200.97
2022-12-04T06:49:36.189Z,102209.66
2022-12-04T06:52:02.710Z,102202.69
2022-12-04T06:54:29.229Z,102203.56
2022-12-04T06:56:55.659Z,102198.34
2022-12-04T06:59:22.115Z,102200.97
2022-12-04T07:01:48.742Z,102208.75
2022-12-04T07:04:15.320Z,102205.31
2022-12-04T07:06:42.016Z,102204.44
2022-12-04T07:09:15.422Z,102200.06
2022-12-04T07:11:43.193Z,102200.97
2022-12-04T07:14:11.685Z,102202.72
2022-12-04T07:16:41.340Z,102209.69
2022-12-04T07:19:13.691Z,102199.22
2022-12-04T07:21:41.120Z,102212.28
2022-12-04T07:24:07.842Z,102205.34
2022-12-04T07:26:34.318Z,102205.31
2022-12-04T07:29:00.935Z,102205.31
2022-12-04T07:31:29.483Z,102213.13
2022-12-04T07:33:56.750Z,102221.81
2022-12-04T07:36:24.521Z,102207.94
2022-12-04T07:38:51.391Z,102220.09
2022-12-04T07:41:19.315Z,102216.63
2022-12-04T07:43:46.188Z,102214.88
2022-12-04T07:46:16.270Z,102219.22
2022-12-04T07:48:43.326Z,102211.41
2022-12-04T07:51:15.689Z,102213.13
2022-12-04T07:53:42.480Z,102214.91
2022-12-04T07:56:10.495Z,102217.50
2022-12-04T07:58:37.136Z,102217.50
2022-12-04T08:01:12.368Z,102217.47
2022-12-04T08:03:46.874Z,102220.09
2022-12-04T08:06:15.648Z,102226.19
2022-12-04T08:08:42.216Z,102226.19
2022-12-04T08:11:11.675Z,102218.34
2022-12-04T08:13:38.178Z,102223.56
2022-12-04T08:16:06.645Z,102224.44
2022-12-04T08:18:33.330Z,102226.19
2022-12-04T08:21:05.717Z,102230.53
2022-12-04T08:23:32.286Z,102231.41
2022-12-04T08:26:00.558Z,102228.78
2022-12-04T08:28:27.182Z,102235.72
2022-12-04T08:30:53.768Z,102241.84
2022-12-04T08:33:20.300Z,102235.75
2022-12-04T08:35:46.927Z,102234.88
2022-12-04T08:38:13.435Z,102246.19
2022-12-04T08:40:40.046Z,102246.19
2022-12-04T08:43:06.479Z,102247.91
2022-12-04T08:45:33.093Z,102245.31
2022-12-04T08:47:59.578Z,102246.16
2022-12-04T08:50:26.069Z,102249.66
2022-12-04T08:52:52.635Z,102251.38
2022-12-04T08:55:19.715Z,102254.00
2022-12-04T08:57:46.313Z,102248.75
2022-12-04T09:00:13.501Z,102257.47
2022-12-04T09:02:39.952Z,102249.63
2022-12-04T09:05:06.701Z,102257.47
2022-12-04T09:07:33.405Z,102257.47
2022-12-04T09:10:00.151Z,102253.97
2022-12-04T09:12:26.979Z,102259.22
2022-12-04T09:14:53.619Z,102262.69
2022-12-04T09:17:20.072Z,102266.16
2022-12-04T09:19:46.740Z,102262.69
2022-12-04T09:22:13.235Z,102267.03
2022-12-04T09:24:39.824Z,102256.59
2022-12-04T09:27:11.287Z,102261.81
2022-12-04T09:29:40.886Z,102265.28
2022-12-04T09:32:07.637Z,102273.13
2022-12-04T09:34:34.184Z,102267.91
2022-12-04T09:37:01.130Z,102266.16
2022-12-04T09:39:27.674Z,102261.81
2022-12-04T09:42:09.391Z,102275.72
2022-12-04T09:44:41.355Z,102265.31
2022-12-04T09:47:29.664Z,102266.16
2022-12-04T09:49:59.024Z,102267.03
2022-12-04T09:52:40.218Z,102274.00
2022-12-04T09:55:11.764Z,102260.94
2022-12-04T09:57:43.968Z,102262.66
2022-12-04T10:00:14.212Z,102259.22
2022-12-04T10:02:44.837Z,102255.72
2022-12-04T10:05:21.693Z,102250.50
2022-12-04T10:08:07.665Z,102248.78
2022-12-04T10:10:39.424Z,102253.97
2022-12-04T10:13:24.606Z,102258.31
2022-12-04T10:16:20.771Z,102237.44
2022-12-04T10:19:00.891Z,102244.41
2022-12-04T10:22:00.604Z,102238.31
2022-12-04T10:24:48.484Z,102229.56
2022-12-04T10:27:22.758Z,102247.84
2022-12-04T10:29:55.662Z,102239.16
2022-12-04T10:32:35.018Z,102247.84
2022-12-04T10:35:33.075Z,102240.00
2022-12-04T10:38:06.892Z,102243.50
2022-12-04T10:40:40.224Z,102239.16
2022-12-04T10:43:18.900Z,102237.44
2022-12-04T10:45:45.532Z,102241.75
2022-12-04T10:48:31.628Z,102233.94
2022-12-04T10:50:58.188Z,102222.59
2022-12-04T10:53:31.025Z,102235.63
2022-12-04T10:56:09.514Z,102229.53
2022-12-04T10:58:36.005Z,102238.25
2022-12-04T11:01:05.986Z,102230.41
2022-12-04T11:03:32.654Z,102228.69
2022-12-04T11:06:03.866Z,102218.22
2022-12-04T11:08:42.637Z,102230.41
2022-12-04T11:11:12.899Z,102224.28
2022-12-04T11:13:42.189Z,102216.44
2022-12-04T11:16:28.885Z,102220.00
2022-12-04T11:18:55.578Z,102213.88
2022-12-04T11:21:32.130Z,102211.25
2022-12-04T11:23:58.912Z,102203.44
2022-12-04T11:26:32.851Z,102198.19
2022-12-04T11:29:05.411Z,102201.66
2022-12-04T11:31:33.168Z,102200.75
2022-12-04T11:34:06.879Z,102195.53
2022-12-04T11:36:41.654Z,102201.63
2022-12-04T11:39:11.142Z,102208.56
2022-12-04T11:41:38.058Z,102200.75
2022-12-04T11:44:24.611Z,102203.38
2022-12-04T11:46:56.625Z,102198.13
2022-12-04T11:49:25.135Z,102203.34
2022-12-04T11:52:23.153Z,102196.41
2022-12-04T11:55:08.789Z,102199.88
2022-12-04T11:57:49.893Z,102202.47
2022-12-04T12:00:21.781Z,102204.19
2022-12-04T12:02:58.153Z,102205.06
2022-12-04T12:05:46.247Z,102176.34
2022-12-04T12:08:46.783Z,102187.66
2022-12-04T12:11:25.802Z,102176.34
2022-12-04T12:14:15.474Z,102163.28
2022-12-04T12:16:58.413Z,102160.72
2022-12-04T12:20:04.260Z,102164.19
2022-12-04T12:22:36.505Z,102154.56
2022-12-04T12:25:17.371Z,102158.94
2022-12-04T12:27:43.857Z,102159.75
2022-12-04T12:30:22.446Z,102159.78
2022-12-04T12:32:53.868Z,102164.13
2022-12-04T12:35:27.089Z,102158.91
2022-12-04T12:37:58.210Z,102164.97
2022-12-04T12:40:39.866Z,102151.91
2022-12-04T12:43:20.833Z,102147.50
2022-12-04T12:45:59.747Z,102149.25
2022-12-04T12:48:46.589Z,102152.75
2022-12-04T12:51:29.963Z,102151.84
2022-12-04T12:54:04.845Z,102143.16
2022-12-04T12:56:38.497Z,102143.16
2022-12-04T12:59:12.246Z,102141.38
2022-12-04T13:02:13.927Z,102142.22
2022-12-04T13:04:43.646Z,102150.03
2022-12-04T13:07:20.700Z,102143.09
2022-12-04T13:09:53.057Z,102137.00
2022-12-04T13:12:21.211Z,102132.66
2022-12-04T13:14:49.292Z,102138.72
2022-12-04T13:17:24.012Z,102135.25
2022-12-04T13:19:54.472Z,102135.22
2022-12-04T13:22:54.179Z,102144.78
2022-12-04T13:25:35.900Z,102141.22
2022-12-04T13:28:31.499Z,102139.50
2022-12-04T13:31:25.841Z,102138.63
2022-12-04T13:33:58.084Z,102138.63
2022-12-04T13:36:42.950Z,102131.75
2022-12-04T13:39:18.629Z,102135.16
2022-12-04T13:41:45.197Z,102129.97
2022-12-04T13:44:22.268Z,102133.38
2022-12-04T13:46:58.831Z,102136.00
2022-12-04T13:49:31.763Z,102133.41
2022-12-04T13:52:00.364Z,102132.53
2022-12-04T13:54:35.760Z,102132.50
2022-12-04T13:57:14.552Z,102135.13
2022-12-04T13:59:42.329Z,102125.53
2022-12-04T14:02:29.031Z,102130.72
2022-12-04T14:05:06.563Z,102129.84
2022-12-04T14:07:42.958Z,102127.25
2022-12-04T14:10:15.750Z,102130.75
2022-12-04T14:12:49.845Z,102125.50
2022-12-04T14:15:38.188Z,102116.78
2022-12-04T14:18:11.434Z,102119.41
2022-12-04T14:20:39.370Z,102117.63
2022-12-04T14:23:17.863Z,102112.38
2022-12-04T14:25:44.443Z,102123.72
2022-12-04T14:28:22.863Z,102130.72
2022-12-04T14:31:06.015Z,102125.50
2022-12-04T14:33:39.509Z,102127.16
2022-12-04T14:36:11.072Z,102125.44
2022-12-04T14:38:38.413Z,102137.63
2022-12-04T14:41:04.955Z,102134.94
2022-12-04T14:43:50.433Z,102135.84
2022-12-04T14:46:41.717Z,102136.75
2022-12-04T14:49:23.583Z,102135.84
2022-12-04T14:52:27.101Z,102135.88
2022-12-04T14:55:07.504Z,102127.16
2022-12-04T14:58:00.337Z,102128.84
2022-12-04T15:00:26.815Z,102128.88
2022-12-04T15:02:58.232Z,102129.69
2022-12-04T15:05:28.412Z,102139.28
2022-12-04T15:07:59.938Z,102144.53
2022-12-04T15:10:47.683Z,102147.13
2022-12-04T15:13:29.237Z,102146.13
2022-12-04T15:15:56.099Z,102137.41
2022-12-04T15:18:22.703Z,102145.25
2022-12-04T15:20:49.127Z,102140.03
2022-12-04T15:23:18.828Z,102142.63
2022-12-04T15:25:49.044Z,102132.22
2022-12-04T15:28:31.348Z,102140.09
2022-12-04T15:31:01.053Z,102137.47
2022-12-04T15:33:30.867Z,102150.50
2022-12-04T15:36:02.841Z,102156.53
2022-12-04T15:38:29.578Z,102154.00
2022-12-04T15:40:58.861Z,102141.72
2022-12-04T15:43:41.145Z,102144.34
2022-12-04T15:46:35.806Z,102140.84
2022-12-04T15:49:26.858Z,102145.19
2022-12-04T15:52:05.716Z,102151.25
2022-12-04T15:54:33.066Z,102140.75
2022-12-04T15:57:05.636Z,102144.28
2022-12-04T15:59:34.715Z,102144.28
2022-12-04T16:02:08.800Z,102145.13
2022-12-04T16:04:37.951Z,102149.56
2022-12-04T16:07:20.545Z,102148.66
2022-12-04T16:09:55.797Z,102135.63
2022-12-04T16:12:31.583Z,102154.69
2022-12-04T16:14:58.344Z,102151.19
2022-12-04T16:17:31.430Z,102157.31
2022-12-04T16:19:59.286Z,102161.66
2022-12-04T16:22:27.098Z,102166.03
2022-12-04T16:24:54.588Z,102170.34
2022-12-04T16:27:25.754Z,102173.78
2022-12-04T16:29:53.198Z,102169.44
2022-12-04T16:32:24.589Z,102166.91
2022-12-04T16:34:53.407Z,102182.59
2022-12-04T16:37:23.337Z,102175.59
2022-12-04T16:39:50.651Z,102164.28
2022-12-04T16:42:29.665Z,102152.97
2022-12-04T16:44:58.182Z,102155.53
2022-12-04T16:47:25.248Z,102172.91
2022-12-04T16:49:57.738Z,102145.13
2022-12-04T16:52:50.092Z,102154.69
2022-12-04T16:55:38.579Z,102138.19
2022-12-04T16:58:08.870Z,102148.63
2022-12-04T17:00:46.245Z,102144.31
2022-12-04T17:03:29.047Z,102153.75
2022-12-04T17:05:56.944Z,102149.38
2022-12-04T17:08:26.731Z,102139.91
2022-12-04T17:10:54.207Z,102140.69
2022-12-04T17:13:28.438Z,102141.53
2022-12-04T17:15:55.492Z,102157.25
2022-12-04T17:18:22.452Z,102149.41
2022-12-04T17:20:51.879Z,102157.25
2022-12-04T17:23:19.031Z,102152.91
2022-12-04T17:25:51.826Z,102153.69
2022-12-04T17:28:21.332Z,102170.19
2022-12-04T17:30:48.273Z,102165.00
2022-12-04T17:33:18.446Z,102165.00
2022-12-04T17:35:51.164Z,102171.03
2022-12-04T17:38:40.699Z,102187.50
2022-12-04T17:41:22.601Z,102170.19
2022-12-04T17:43:49.960Z,102154.53
2022-12-04T17:46:21.856Z,102158.97
2022-12-04T17:48:53.231Z,102187.56
2022-12-04T17:51:24.361Z,102160.69
2022-12-04T17:53:55.806Z,102152.88
2022-12-04T17:56:34.229Z,102165.94
2022-12-04T17:59:14.535Z,102155.50
2022-12-04T18:01:41.709Z,102173.72
2022-12-04T18:04:29.166Z,102162.44
2022-12-04T18:06:56.565Z,102180.53
2022-12-04T18:09:23.151Z,102187.38
2022-12-04T18:12:39.403Z,102195.25
2022-12-04T18:15:25.181Z,102180.63
2022-12-04T18:18:03.457Z,102182.25
2022-12-04T18:20:32.785Z,102177.06
2022-12-04T18:23:51.364Z,102193.56
2022-12-04T18:26:21.318Z,102165.00
2022-12-04T18:28:51.856Z,102165.03
2022-12-04T18:31:24.228Z,102171.88
2022-12-04T18:33:51.006Z,102173.69
2022-12-04T18:36:42.450Z,102183.22
2022-12-04T18:39:21.118Z,102176.25
2022-12-04T18:41:55.856Z,102202.25
2022-12-04T18:44:26.877Z,102194.50
2022-12-04T18:46:58.804Z,102180.69
2022-12-04T18:49:28.739Z,102184.13
2022-12-04T18:51:59.205Z,102181.59
2022-12-04T18:54:26.184Z,102212.75
2022-12-04T18:56:58.360Z,102200.66
2022-12-04T18:59:32.442Z,102192.00
2022-12-04T19:01:59.340Z,102192.06
2022-12-04T19:04:34.758Z,102197.22
2022-12-04T19:07:02.516Z,102193.66
2022-12-04T19:10:02.575Z,102184.13
2022-12-04T19:12:21.930Z,102181.50
2022-12-04T19:14:51.897Z,102194.59
2022-12-04T19:17:24.309Z,102187.56
2022-12-04T19:19:54.065Z,102180.66
2022-12-04T19:22:26.666Z,102210.16
2022-12-04T19:25:00.608Z,102199.72
2022-12-04T19:27:33.908Z,102192.75
2022-12-04T19:30:04.015Z,102202.25
2022-12-04T19:32:35.093Z,102190.13
2022-12-04T19:35:11.440Z,102186.63
2022-12-04T19:37:41.715Z,102196.16
2022-12-04T19:40:14.027Z,102193.56
2022-12-04T19:42:43.227Z,102197.84
2022-12-04T19:45:10.792Z,102190.06
2022-12-04T19:47:43.435Z,102206.47
2022-12-04T19:50:22.443Z,102192.66
2022-12-04T19:52:51.595Z,102219.50
2022-12-04T19:55:23.337Z,102197.81
2022-12-04T19:57:50.316Z,102205.56
2022-12-04T20:00:17.457Z,102205.56
2022-12-04T20:02:48.102Z,102203.81
2022-12-04T20:05:20.316Z,102200.31
2022-12-04T20:07:47.343Z,102203.78
2022-12-04T20:10:19.854Z,102189.91
2022-12-04T20:12:48.908Z,102203.78
2022-12-04T20:15:15.826Z,102200.28
2022-12-04T20:17:55.160Z,102181.19
2022-12-04T20:20:32.156Z,102201.00
2022-12-04T20:23:06.444Z,102187.97
2022-12-04T20:25:37.681Z,102188.94
2022-12-04T20:28:10.195Z,102199.34
2022-12-04T20:30:49.285Z,102184.53
2022-12-04T20:33:25.741Z,102177.50
2022-12-04T20:35:52.852Z,102208.69
2022-12-04T20:38:22.843Z,102186.22
2022-12-04T20:40:54.858Z,102187.81
2022-12-04T20:43:30.840Z,102180.97
2022-12-04T20:46:19.903Z,102189.56
2022-12-04T20:48:50.773Z,102184.38
2022-12-04T20:51:33.828Z,102180.84
2022-12-04T20:54:04.622Z,102181.75
2022-12-04T20:56:37.914Z,102181.66
2022-12-04T20:59:21.350Z,102200.00
2022-12-04T21:02:02.337Z,102198.22
2022-12-04T21:04:31.844Z,102186.03
2022-12-04T21:07:04.173Z,102193.75
2022-12-04T21:09:31.071Z,102181.59
2022-12-04T21:12:04.652Z,102176.34
2022-12-04T21:14:54.290Z,102172.94
2022-12-04T21:17:21.421Z,102196.25
2022-12-04T21:19:52.670Z,102195.34
2022-12-04T21:22:21.802Z,102199.66
2022-12-04T21:24:51.227Z,102197.13
2022-12-04T21:27:25.546Z,102184.19
2022-12-04T21:29:52.294Z,102191.91
2022-12-04T21:32:19.751Z,102183.25
2022-12-04T21:34:47.812Z,102191.88
2022-12-04T21:37:14.629Z,102198.69
2022-12-04T21:39:43.302Z,102196.13
2022-12-04T21:42:31.674Z,102175.34
2022-12-04T21:45:04.258Z,102179.72
2022-12-04T21:47:33.790Z,102178.72
2022-12-04T21:50:18.460Z,102202.16
2022-12-04T21:52:45.270Z,102187.34
2022-12-04T21:55:14.404Z,102196.16
2022-12-04T21:57:46.156Z,102190.00
2022-12-04T22:00:17.033Z,102209.91
2022-12-04T22:02:43.896Z,102185.59
2022-12-04T22:05:21.251Z,102196.78
2022-12-04T22:07:53.234Z,102184.59
2022-12-04T22:10:20.018Z,102199.41
2022-12-04T22:12:50.490Z,102191.56
2022-12-04T22:15:18.003Z,102173.31
2022-12-04T22:17:47.152Z,102192.34
2022-12-04T22:20:17.414Z,102189.81
2022-12-04T22:22:46.928Z,102183.72
2022-12-04T22:25:14.744Z,102181.09
2022-12-04T22:27:46.639Z,102191.47
2022-12-04T22:30:13.954Z,102185.53
2022-12-04T22:32:43.843Z,102200.16
2022-12-04T22:35:13.455Z,102189.72
2022-12-04T22:37:44.759Z,102200.97
2022-12-04T22:40:15.598Z,102188.94
2022-12-04T22:42:45.049Z,102201.91
2022-12-04T22:45:15.536Z,102183.63
2022-12-04T22:47:44.730Z,102174.09
2022-12-04T22:50:13.639Z,102198.34
2022-12-04T22:52:43.455Z,102190.56
2022-12-04T22:55:10.419Z,102181.84
2022-12-04T22:57:37.481Z,102189.66
2022-12-04T23:00:14.003Z,102187.94
2022-12-04T23:02:43.740Z,102176.63
2022-12-04T23:05:12.114Z,102179.19
2022-12-04T23:07:39.508Z,102179.19
2022-12-04T23:10:09.845Z,102178.28
2022-12-04T23:12:36.581Z,102192.22
2022-12-04T23:15:07.840Z,102194.69
2022-12-04T23:17:38.024Z,102209.50
2022-12-04T23:20:08.798Z,102186.06
2022-12-04T23:22:38.562Z,102177.31
2022-12-04T23:25:07.012Z,102177.25
2022-12-04T23:27:33.831Z,102197.31
2022-12-04T23:30:05.324Z,102186.78
2022-12-04T23:32:34.394Z,102186.75
2022-12-04T23:35:06.013Z,102197.09
2022-12-04T23:37:37.623Z,102165.94
2022-12-04T23:40:09.559Z,102184.13
2022-12-04T23:42:36.499Z,102185.69
2022-12-04T23:45:04.398Z,102171.97
2022-12-04T23:47:31.212Z,102181.47
2022-12-04T23:50:06.004Z,102175.28
2022-12-04T23:52:33.027Z,102165.69
2022-12-04T23:55:07.412Z,102168.28
2022-12-04T23:57:38.267Z,102169.19
